Time;durP1;ratioP1;P1;durP2;ratioP2;P2;SDS_P1;SDS_P2;PMS_P1;PMS_P2;Temp;Humidity;BMP_temperature;BMP_pressure;BME280_temperature;BME280_humidity;BME280_pressure;Samples;Min_cycle;Max_cycle;Signal;HPM_P1;HPM_P2
2022/03/08 00:01:39;;;;;;;16.70;9.83;;;24.40;84.20;;;;;;1836769;77;21645;-82
2022/03/08 00:04:10;;;;;;;19.30;10.18;;;24.40;84.30;;;;;;1869070;75;21527;-84
2022/03/08 00:06:41;;;;;;;15.78;10.38;;;24.50;84.40;;;;;;1887805;75;21210;-83
2022/03/08 00:09:11;;;;;;;17.67;11.38;;;24.50;84.70;;;;;;1881014;75;21192;-83
2022/03/08 00:11:42;;;;;;;18.23;12.37;;;24.50;84.70;;;;;;1890608;75;21178;-83
2022/03/08 00:14:13;;;;;;;17.37;12.15;;;24.50;85.10;;;;;;1880997;75;21077;-83
2022/03/08 00:16:43;;;;;;;23.22;12.85;;;24.50;85.80;;;;;;1885267;75;21091;-83
2022/03/08 00:19:14;;;;;;;18.48;13.22;;;24.60;86.20;;;;;;1877145;75;21151;-83
2022/03/08 00:21:45;;;;;;;19.15;13.18;;;24.60;86.50;;;;;;1885323;75;21084;-84
2022/03/08 00:24:16;;;;;;;23.12;14.35;;;24.60;86.80;;;;;;1878257;75;21158;-84
2022/03/08 00:26:47;;;;;;;17.82;11.85;;;24.60;87.40;;;;;;1873841;74;21170;-84
2022/03/08 00:29:18;;;;;;;18.20;12.35;;;24.60;87.50;;;;;;1893267;75;21079;-84
2022/03/08 00:31:48;;;;;;;18.15;11.70;;;24.60;87.70;;;;;;1887674;75;21176;-84
2022/03/08 00:34:19;;;;;;;22.70;12.88;;;24.60;87.40;;;;;;1867330;75;21162;-83
2022/03/08 00:36:50;;;;;;;17.85;12.25;;;24.60;88.30;;;;;;1879949;75;21722;-83
2022/03/08 00:39:21;;;;;;;19.25;12.07;;;24.60;87.10;;;;;;1840266;77;21290;-83
2022/03/08 00:41:51;;;;;;;18.20;12.58;;;24.60;87.20;;;;;;1830467;77;21244;-84
2022/03/08 00:44:22;;;;;;;18.60;12.28;;;24.60;87.20;;;;;;1843873;77;21779;-83
2022/03/08 00:46:53;;;;;;;16.80;11.40;;;24.60;87.40;;;;;;1853680;76;21216;-83
2022/03/08 00:49:24;;;;;;;17.23;11.78;;;24.60;87.20;;;;;;1850126;77;21131;-84
2022/03/08 00:51:55;;;;;;;16.50;11.28;;;24.60;87.40;;;;;;1828239;77;21176;-83
2022/03/08 00:54:25;;;;;;;19.50;11.63;;;24.50;87.10;;;;;;1798722;78;21140;-83
2022/03/08 00:56:56;;;;;;;14.40;11.15;;;24.60;87.70;;;;;;1789713;79;21157;-84
2022/03/08 00:59:27;;;;;;;15.03;11.78;;;24.60;88.00;;;;;;1836580;77;21625;-84
2022/03/08 01:01:59;;;;;;;16.57;10.48;;;24.60;88.60;;;;;;1861606;75;21095;-83
2022/03/08 01:04:30;;;;;;;14.78;10.32;;;24.60;88.40;;;;;;1869784;76;21558;-85
2022/03/08 01:07:01;;;;;;;17.60;10.32;;;24.70;88.00;;;;;;1864028;75;21194;-84
2022/03/08 01:09:32;;;;;;;14.58;10.20;;;24.70;87.10;;;;;;1871833;76;21140;-83
2022/03/08 01:12:03;;;;;;;13.98;10.60;;;24.80;87.40;;;;;;1859981;75;21087;-84
2022/03/08 01:14:34;;;;;;;14.65;10.68;;;24.80;87.40;;;;;;1863775;76;21199;-83
2022/03/08 01:17:05;;;;;;;17.05;9.93;;;24.80;87.80;;;;;;1860377;75;21151;-85
2022/03/08 01:19:36;;;;;;;14.15;8.93;;;24.80;87.90;;;;;;1873999;76;21661;-83
2022/03/08 01:22:07;;;;;;;14.20;9.60;;;24.90;87.80;;;;;;1865034;75;21252;-83
2022/03/08 01:24:38;;;;;;;16.65;9.73;;;24.90;87.10;;;;;;1828952;77;21215;-83
2022/03/08 01:27:09;;;;;;;14.13;10.28;;;25.00;87.20;;;;;;1866968;75;21272;-83
2022/03/08 01:29:40;;;;;;;16.42;10.23;;;25.00;86.80;;;;;;1865779;75;21239;-83
2022/03/08 01:32:11;;;;;;;14.03;9.38;;;25.10;86.70;;;;;;1858447;75;21199;-83
2022/03/08 01:34:42;;;;;;;13.98;9.58;;;25.10;86.70;;;;;;1860811;75;21209;-83
2022/03/08 01:37:13;;;;;;;15.08;9.95;;;25.20;86.20;;;;;;1829183;77;21512;-84
2022/03/08 01:39:44;;;;;;;12.58;9.93;;;25.30;86.30;;;;;;1825509;77;21169;-84
2022/03/08 01:42:17;;;;;;;15.93;9.33;;;25.30;86.20;;;;;;1800165;78;21108;-81
2022/03/08 01:44:48;;;;;;;13.10;9.00;;;25.40;84.50;;;;;;1867451;75;21552;-72
2022/03/08 01:47:21;;;;;;;14.90;8.78;;;25.40;83.70;;;;;;1855112;75;21651;-73
2022/03/08 01:49:53;;;;;;;14.85;9.23;;;25.50;83.30;;;;;;1871328;75;21256;-72
2022/03/08 01:52:26;;;;;;;11.35;8.63;;;25.50;80.20;;;;;;1864996;75;21229;-71
2022/03/08 01:54:56;;;;;;;17.32;9.33;;;25.40;80.80;;;;;;1858910;76;21226;-72
2022/03/08 01:57:27;;;;;;;11.08;8.75;;;25.50;81.30;;;;;;1854393;75;21101;-72
2022/03/08 01:59:58;;;;;;;15.58;8.85;;;25.50;79.80;;;;;;1873950;75;21177;-71
2022/03/08 02:02:29;;;;;;;14.40;8.60;;;25.50;79.10;;;;;;1857886;76;21610;-72
2022/03/08 02:05:00;;;;;;;15.13;8.80;;;25.50;78.60;;;;;;1862164;75;21146;-74
2022/03/08 02:07:31;;;;;;;16.62;9.78;;;25.50;78.30;;;;;;1856743;75;21658;-73
2022/03/08 02:10:02;;;;;;;10.05;8.18;;;25.50;79.30;;;;;;1862904;76;21139;-72
2022/03/08 02:12:33;;;;;;;13.03;8.55;;;25.50;77.30;;;;;;1863642;75;21170;-74
2022/03/08 02:15:06;;;;;;;13.28;8.50;;;25.60;77.90;;;;;;1865504;76;21627;-74
2022/03/08 02:17:36;;;;;;;14.07;9.40;;;25.60;78.70;;;;;;1876318;75;21664;-74
2022/03/08 02:20:08;;;;;;;11.65;8.88;;;25.60;78.70;;;;;;1865539;75;21197;-72
2022/03/08 02:22:41;;;;;;;11.50;8.28;;;25.60;77.50;;;;;;1861299;75;21606;-73
2022/03/08 02:25:13;;;;;;;11.83;8.65;;;25.60;77.90;;;;;;1876912;75;21079;-72
2022/03/08 02:27:46;;;;;;;14.90;8.80;;;25.60;78.00;;;;;;1871157;75;21231;-72
2022/03/08 02:30:19;;;;;;;13.45;8.40;;;25.60;77.20;;;;;;1858722;76;21872;-72
2022/03/08 02:32:50;;;;;;;16.05;9.03;;;25.70;77.30;;;;;;1868504;75;21200;-73
2022/03/08 02:35:24;;;;;;;14.95;10.65;;;25.70;77.40;;;;;;1866036;75;22418;-71
2022/03/08 02:37:58;;;;;;;12.98;8.98;;;25.80;77.40;;;;;;1789627;78;21688;-72
2022/03/08 02:40:31;;;;;;;15.75;8.90;;;25.90;77.00;;;;;;1870653;75;21116;-72
2022/03/08 02:43:03;;;;;;;12.95;8.73;;;25.90;77.50;;;;;;1874993;75;21135;-75
2022/03/08 02:45:35;;;;;;;11.20;8.60;;;26.00;77.00;;;;;;1870267;75;21121;-74
2022/03/08 02:48:07;;;;;;;14.75;9.30;;;26.10;76.30;;;;;;1861290;75;21134;-73
2022/03/08 02:50:37;;;;;;;11.05;8.88;;;26.10;76.10;;;;;;1876460;75;21282;-72
2022/03/08 02:53:08;;;;;;;16.67;10.05;;;26.20;75.50;;;;;;1877319;75;21264;-73
2022/03/08 02:55:39;;;;;;;12.23;9.13;;;26.20;74.60;;;;;;1882453;75;21608;-73
2022/03/08 02:58:10;;;;;;;14.68;8.95;;;26.20;74.90;;;;;;1827961;77;21199;-72
2022/03/08 03:00:41;;;;;;;12.98;8.63;;;26.20;74.20;;;;;;1870889;75;21583;-72
2022/03/08 03:03:12;;;;;;;18.20;8.73;;;26.30;74.40;;;;;;1870624;75;21103;-74
2022/03/08 03:05:43;;;;;;;15.10;9.03;;;26.40;74.00;;;;;;1868808;75;21229;-73
2022/03/08 03:08:15;;;;;;;13.85;8.40;;;26.40;74.30;;;;;;1867992;75;21626;-72
2022/03/08 03:10:45;;;;;;;14.38;9.03;;;26.50;73.20;;;;;;1874376;75;21212;-73
2022/03/08 03:13:16;;;;;;;10.95;8.78;;;26.60;73.80;;;;;;1873897;75;21092;-72
2022/03/08 03:15:47;;;;;;;12.75;8.95;;;26.60;73.80;;;;;;1873120;75;21051;-73
2022/03/08 03:18:18;;;;;;;16.30;9.18;;;26.70;73.40;;;;;;1797491;78;21278;-72
2022/03/08 03:20:49;;;;;;;12.68;8.75;;;26.80;72.70;;;;;;1874784;75;21271;-73
2022/03/08 03:23:19;;;;;;;13.70;9.38;;;26.90;72.80;;;;;;1868484;75;21563;-72
2022/03/08 03:25:50;;;;;;;15.58;9.55;;;27.00;72.30;;;;;;1879663;75;21499;-73
2022/03/08 03:28:21;;;;;;;11.85;8.80;;;27.10;73.10;;;;;;1876713;75;21994;-72
2022/03/08 03:30:52;;;;;;;14.75;9.00;;;27.20;73.20;;;;;;1874702;75;21244;-72
2022/03/08 03:33:22;;;;;;;13.85;9.73;;;27.30;72.30;;;;;;1869500;75;21209;-73
2022/03/08 03:35:53;;;;;;;12.10;9.23;;;27.40;73.30;;;;;;1870547;75;21076;-72
2022/03/08 03:38:25;;;;;;;15.90;9.75;;;27.50;71.00;;;;;;1864699;75;21104;-72
2022/03/08 03:40:56;;;;;;;14.28;9.23;;;27.60;70.70;;;;;;1870381;75;21150;-71
2022/03/08 03:43:27;;;;;;;14.10;9.68;;;27.60;70.90;;;;;;1873383;75;21700;-72
2022/03/08 03:45:58;;;;;;;12.23;8.98;;;27.70;70.40;;;;;;1834467;77;21156;-72
2022/03/08 03:48:29;;;;;;;13.98;8.65;;;27.70;70.40;;;;;;1877714;75;21080;-73
2022/03/08 03:51:00;;;;;;;13.53;9.48;;;27.80;70.30;;;;;;1874285;75;21222;-72
2022/03/08 03:53:30;;;;;;;11.93;8.80;;;27.90;70.00;;;;;;1868283;76;21103;-72
2022/03/08 03:56:01;;;;;;;12.93;8.48;;;27.90;69.30;;;;;;1854630;75;21202;-73
2022/03/08 03:58:33;;;;;;;12.30;8.63;;;27.90;70.10;;;;;;1861798;75;21174;-72
2022/03/08 04:01:04;;;;;;;15.03;10.60;;;28.00;68.60;;;;;;1861985;75;21101;-73
2022/03/08 04:03:35;;;;;;;15.35;8.95;;;28.10;69.60;;;;;;1868963;75;21197;-74
2022/03/08 04:06:07;;;;;;;13.08;9.38;;;28.10;69.60;;;;;;1827711;77;21778;-73
2022/03/08 04:08:38;;;;;;;12.40;8.70;;;28.20;69.40;;;;;;1832794;77;21556;-74
2022/03/08 04:11:10;;;;;;;16.57;8.53;;;28.30;69.00;;;;;;1801719;78;21744;-73
2022/03/08 04:13:41;;;;;;;13.08;9.03;;;28.30;67.00;;;;;;1830678;77;21172;-73
2022/03/08 04:16:11;;;;;;;14.23;8.48;;;28.20;68.60;;;;;;1828070;77;21082;-73
2022/03/08 04:18:42;;;;;;;13.62;8.50;;;28.30;67.80;;;;;;1803446;78;21667;-73
2022/03/08 04:21:13;;;;;;;13.85;8.63;;;28.40;68.00;;;;;;1877312;75;21079;-74
2022/03/08 04:23:44;;;;;;;13.90;8.30;;;28.60;68.00;;;;;;1885177;75;21535;-73
2022/03/08 04:26:15;;;;;;;13.32;9.03;;;28.60;66.00;;;;;;1835085;77;21178;-72
2022/03/08 04:28:45;;;;;;;15.25;8.65;;;28.60;67.10;;;;;;1830425;77;21173;-74
2022/03/08 04:31:16;;;;;;;9.75;8.08;;;28.60;66.30;;;;;;1859393;76;21921;-73
2022/03/08 04:33:47;;;;;;;11.38;8.65;;;28.60;66.70;;;;;;1861248;76;21579;-73
2022/03/08 04:36:17;;;;;;;12.50;8.55;;;28.70;66.50;;;;;;1842835;77;21178;-74
2022/03/08 04:38:48;;;;;;;11.12;8.78;;;28.70;65.40;;;;;;1834176;77;21182;-73
2022/03/08 04:41:19;;;;;;;13.38;9.48;;;28.80;66.80;;;;;;1850835;76;21174;-74
2022/03/08 04:43:50;;;;;;;12.58;8.68;;;28.70;65.50;;;;;;1854008;76;21143;-73
2022/03/08 04:46:21;;;;;;;12.68;9.25;;;28.80;66.40;;;;;;1848413;76;21108;-75
2022/03/08 04:48:51;;;;;;;15.20;8.95;;;28.80;65.90;;;;;;1836444;77;21679;-75
2022/03/08 04:51:22;;;;;;;16.40;10.13;;;28.90;66.10;;;;;;1843040;77;21152;-75
2022/03/08 04:53:53;;;;;;;12.88;9.33;;;29.00;65.70;;;;;;1822407;78;21724;-77
2022/03/08 04:56:24;;;;;;;18.12;9.95;;;29.10;64.90;;;;;;1799580;78;21596;-75
2022/03/08 04:58:56;;;;;;;14.23;9.38;;;29.10;65.60;;;;;;1821536;79;21158;-75
2022/03/08 05:01:27;;;;;;;13.40;8.85;;;29.20;66.30;;;;;;1838315;77;21162;-75
2022/03/08 05:03:58;;;;;;;13.65;9.03;;;29.20;65.30;;;;;;1831783;77;21620;-75
2022/03/08 05:06:30;;;;;;;15.25;8.83;;;29.30;65.10;;;;;;1872187;75;21662;-75
2022/03/08 05:09:01;;;;;;;13.10;8.63;;;29.30;64.60;;;;;;1872569;76;21162;-75
2022/03/08 05:11:32;;;;;;;14.55;9.38;;;29.30;65.20;;;;;;1868198;75;21243;-74
2022/03/08 05:14:04;;;;;;;14.15;8.40;;;29.40;64.80;;;;;;1869915;76;22195;-75
2022/03/08 05:16:34;;;;;;;17.00;8.85;;;29.30;64.60;;;;;;1862712;76;22622;-74
2022/03/08 05:19:24;;;;;;;12.85;8.63;;;29.20;64.80;;;;;;1833226;77;21149;-75
2022/03/08 05:21:55;;;;;;;11.68;8.05;;;29.20;65.30;;;;;;1845643;76;21607;-74
2022/03/08 05:24:26;;;;;;;10.45;7.97;;;29.30;64.00;;;;;;1842173;76;21729;-74
2022/03/08 05:26:57;;;;;;;13.10;8.80;;;29.30;64.60;;;;;;1813345;77;21076;-74
2022/03/08 05:29:28;;;;;;;12.58;8.08;;;29.30;64.50;;;;;;1829193;77;21148;-72
2022/03/08 05:31:59;;;;;;;11.03;8.15;;;29.30;65.10;;;;;;1806849;77;21184;-74
2022/03/08 05:34:29;;;;;;;12.88;8.50;;;29.30;63.60;;;;;;1790683;79;21186;-73
2022/03/08 05:37:00;;;;;;;14.80;8.78;;;29.30;63.40;;;;;;1837308;76;21162;-73
2022/03/08 05:39:31;;;;;;;13.00;8.60;;;29.30;64.30;;;;;;1831557;76;21186;-74
2022/03/08 05:42:02;;;;;;;14.75;8.15;;;29.30;64.20;;;;;;1795895;80;21634;-74
2022/03/08 05:44:32;;;;;;;12.28;8.80;;;29.30;64.30;;;;;;1820635;77;21121;-74
2022/03/08 05:47:04;;;;;;;10.18;8.05;;;29.30;64.30;;;;;;1810856;77;21661;-74
2022/03/08 05:49:35;;;;;;;13.32;8.23;;;29.30;64.00;;;;;;1821743;77;21233;-74
2022/03/08 05:52:06;;;;;;;11.38;8.30;;;29.30;64.10;;;;;;1809421;78;21706;-73
2022/03/08 05:54:37;;;;;;;11.38;8.48;;;29.10;64.10;;;;;;1833575;77;21254;-73
2022/03/08 05:57:08;;;;;;;9.75;8.03;;;29.10;64.70;;;;;;1800822;77;22345;-73
2022/03/08 05:59:38;;;;;;;14.03;8.85;;;29.00;65.30;;;;;;1798060;78;21234;-73
2022/03/08 06:02:09;;;;;;;12.33;8.53;;;28.90;65.90;;;;;;1837149;76;21223;-73
2022/03/08 06:04:40;;;;;;;11.80;8.28;;;28.90;66.80;;;;;;1842701;76;21165;-72
2022/03/08 06:07:12;;;;;;;12.30;7.97;;;28.80;65.80;;;;;;1801490;77;21245;-73
2022/03/08 06:09:44;;;;;;;11.70;7.95;;;28.70;65.30;;;;;;1842075;77;21104;-73
2022/03/08 06:12:16;;;;;;;14.07;8.75;;;28.70;65.80;;;;;;1812568;77;21167;-72
2022/03/08 06:14:46;;;;;;;11.63;8.20;;;28.70;66.40;;;;;;1846763;76;21743;-73
2022/03/08 06:17:17;;;;;;;12.18;8.70;;;28.70;66.50;;;;;;1847438;76;21179;-72
2022/03/08 06:19:48;;;;;;;15.00;8.30;;;28.80;66.20;;;;;;1803495;77;21203;-73
2022/03/08 06:22:19;;;;;;;17.20;9.13;;;28.80;66.30;;;;;;1836793;77;21731;-71
2022/03/08 06:24:49;;;;;;;13.22;8.70;;;28.80;66.50;;;;;;1808615;77;21139;-72
2022/03/08 06:27:20;;;;;;;13.15;8.75;;;28.80;66.00;;;;;;1817197;77;21144;-73
2022/03/08 06:29:52;;;;;;;12.80;8.30;;;28.80;66.20;;;;;;1811710;77;21155;-72
2022/03/08 06:32:23;;;;;;;16.70;8.48;;;28.80;66.10;;;;;;1780605;78;21167;-72
2022/03/08 06:34:54;;;;;;;12.00;8.58;;;28.80;65.60;;;;;;1812266;77;21669;-72
2022/03/08 06:37:25;;;;;;;13.13;8.80;;;28.80;65.20;;;;;;1815078;77;21112;-72
2022/03/08 06:39:55;;;;;;;14.53;8.78;;;28.80;65.40;;;;;;1818234;77;21612;-72
2022/03/08 06:42:26;;;;;;;11.68;8.25;;;28.70;64.80;;;;;;1807930;77;21179;-73
2022/03/08 06:44:57;;;;;;;14.47;9.55;;;28.80;64.90;;;;;;1820531;77;21155;-72
2022/03/08 06:47:28;;;;;;;12.07;8.35;;;28.70;65.10;;;;;;1820136;77;21148;-73
2022/03/08 06:49:59;;;;;;;11.05;7.75;;;28.70;65.00;;;;;;1812736;77;21288;-73
2022/03/08 06:52:30;;;;;;;11.33;8.38;;;28.80;65.30;;;;;;1805605;77;21115;-73
2022/03/08 06:55:01;;;;;;;13.03;8.58;;;28.80;65.40;;;;;;1800082;77;21215;-72
2022/03/08 06:57:31;;;;;;;10.85;7.75;;;28.80;65.00;;;;;;1825234;78;21163;-77
2022/03/08 07:00:03;;;;;;;12.13;7.87;;;28.90;65.10;;;;;;1814301;77;21590;-73
2022/03/08 07:02:35;;;;;;;12.63;7.80;;;28.90;64.30;;;;;;1821412;76;21187;-74
2022/03/08 07:05:08;;;;;;;11.15;7.92;;;28.90;64.20;;;;;;1809885;77;21248;-74
2022/03/08 07:07:38;;;;;;;9.85;7.22;;;29.00;64.00;;;;;;1825475;77;21722;-73
2022/03/08 07:10:10;;;;;;;10.23;7.97;;;29.10;64.50;;;;;;1809281;77;21168;-74
2022/03/08 07:12:41;;;;;;;13.65;7.70;;;29.20;63.60;;;;;;1822364;77;21191;-73
2022/03/08 07:15:14;;;;;;;11.53;7.85;;;29.20;63.80;;;;;;1825422;77;21185;-74
2022/03/08 07:17:46;;;;;;;12.45;8.05;;;29.20;63.80;;;;;;1823276;77;21196;-72
2022/03/08 07:20:16;;;;;;;12.45;7.75;;;29.30;63.80;;;;;;1816471;77;21179;-72
2022/03/08 07:22:47;;;;;;;11.53;8.18;;;29.20;63.80;;;;;;1827418;76;21183;-73
2022/03/08 07:25:18;;;;;;;13.13;8.13;;;29.20;63.60;;;;;;1828777;76;21155;-72
2022/03/08 07:27:48;;;;;;;10.43;8.28;;;29.10;63.90;;;;;;1828906;76;21178;-72
2022/03/08 07:30:19;;;;;;;10.25;8.00;;;29.10;64.40;;;;;;1830074;77;21139;-72
2022/03/08 07:32:51;;;;;;;13.38;7.78;;;29.10;64.40;;;;;;1786178;78;21296;-72
2022/03/08 07:35:22;;;;;;;15.08;8.20;;;29.10;65.00;;;;;;1832828;76;21099;-72
2022/03/08 07:37:53;;;;;;;11.35;8.15;;;29.00;64.60;;;;;;1829477;76;21182;-72
2022/03/08 07:40:23;;;;;;;12.45;8.13;;;29.00;64.80;;;;;;1789420;78;21287;-73
2022/03/08 07:42:54;;;;;;;13.55;8.33;;;29.00;64.80;;;;;;1834740;77;21178;-72
2022/03/08 07:45:25;;;;;;;11.78;8.30;;;29.10;64.10;;;;;;1822440;77;21317;-73
2022/03/08 07:47:56;;;;;;;13.72;8.78;;;29.10;64.50;;;;;;1827864;77;21202;-72
2022/03/08 07:50:27;;;;;;;13.18;8.68;;;29.20;64.60;;;;;;1822892;76;21152;-73
2022/03/08 07:52:59;;;;;;;14.50;8.53;;;29.20;64.50;;;;;;1785697;78;21143;-72
2022/03/08 07:55:30;;;;;;;15.78;8.45;;;29.20;64.50;;;;;;1825856;77;21136;-73
2022/03/08 07:58:02;;;;;;;11.00;7.92;;;29.30;64.30;;;;;;1791378;78;21943;-73
2022/03/08 08:00:34;;;;;;;14.03;8.25;;;29.30;64.50;;;;;;1830488;77;21200;-71
2022/03/08 08:03:05;;;;;;;12.40;8.78;;;29.20;64.70;;;;;;1836764;76;21155;-73
2022/03/08 08:05:38;;;;;;;12.75;8.85;;;29.20;64.80;;;;;;1791658;78;21600;-74
2022/03/08 08:08:09;;;;;;;10.80;7.90;;;29.10;65.20;;;;;;1832139;77;21092;-73
2022/03/08 08:10:40;;;;;;;11.30;8.63;;;29.00;65.40;;;;;;1790688;78;21166;-73
2022/03/08 08:13:11;;;;;;;14.20;8.05;;;29.00;65.40;;;;;;1833095;76;21128;-73
2022/03/08 08:15:42;;;;;;;16.77;8.70;;;29.00;65.50;;;;;;1793779;78;21207;-74
2022/03/08 08:18:15;;;;;;;14.07;8.90;;;29.00;65.60;;;;;;1789504;78;21257;-73
2022/03/08 08:20:46;;;;;;;13.00;8.15;;;29.00;66.10;;;;;;1834433;77;21158;-76
2022/03/08 08:23:17;;;;;;;12.60;8.68;;;29.10;64.90;;;;;;1853042;76;21119;-74
2022/03/08 08:25:48;;;;;;;10.88;7.75;;;29.10;65.00;;;;;;1817819;77;21236;-72
2022/03/08 08:28:19;;;;;;;14.65;8.48;;;29.20;64.90;;;;;;1854989;75;21157;-74
2022/03/08 08:30:50;;;;;;;10.63;8.15;;;29.30;65.20;;;;;;1831344;77;21115;-75
2022/03/08 08:33:20;;;;;;;11.10;7.80;;;29.30;64.40;;;;;;1840937;77;21161;-74
2022/03/08 08:35:51;;;;;;;13.22;8.68;;;29.40;64.00;;;;;;1822624;77;21185;-73
2022/03/08 08:38:22;;;;;;;11.40;8.73;;;29.40;63.70;;;;;;1824148;77;21123;-75
2022/03/08 08:40:53;;;;;;;16.42;7.97;;;29.40;64.20;;;;;;1868076;75;21192;-74
2022/03/08 08:43:24;;;;;;;11.35;8.30;;;29.40;64.30;;;;;;1802862;77;21201;-73
2022/03/08 08:45:55;;;;;;;11.15;8.20;;;29.40;64.20;;;;;;1866225;75;21111;-75
2022/03/08 08:48:26;;;;;;;12.90;8.28;;;29.40;62.90;;;;;;1867789;75;21205;-75
2022/03/08 08:50:57;;;;;;;15.03;8.75;;;29.30;63.30;;;;;;1815844;77;21178;-75
2022/03/08 08:53:28;;;;;;;13.45;8.43;;;29.30;63.40;;;;;;1869118;75;21210;-75
2022/03/08 08:55:59;;;;;;;11.60;7.60;;;29.30;63.80;;;;;;1868880;75;21133;-74
2022/03/08 08:58:30;;;;;;;14.93;8.45;;;29.30;63.80;;;;;;1856304;75;21178;-73
2022/03/08 09:01:01;;;;;;;12.65;8.83;;;29.40;63.90;;;;;;1833239;77;21446;-74
2022/03/08 09:03:32;;;;;;;13.98;8.98;;;29.40;63.60;;;;;;1817497;77;21174;-73
2022/03/08 09:06:03;;;;;;;13.10;8.90;;;29.40;63.90;;;;;;1854692;75;22635;-74
2022/03/08 09:08:34;;;;;;;12.85;8.00;;;29.40;63.70;;;;;;1824077;77;21166;-73
2022/03/08 09:11:08;;;;;;;12.05;8.85;;;29.40;63.70;;;;;;1862067;75;21980;-73
2022/03/08 09:13:39;;;;;;;14.47;8.65;;;29.40;64.00;;;;;;1864146;75;21500;-75
2022/03/08 09:16:10;;;;;;;12.47;8.63;;;29.40;63.70;;;;;;1854111;75;21602;-73
2022/03/08 09:18:40;;;;;;;11.73;8.48;;;29.30;64.00;;;;;;1855105;77;21597;-73
2022/03/08 09:21:12;;;;;;;13.90;8.70;;;29.30;64.10;;;;;;1824713;77;21155;-74
2022/03/08 09:23:43;;;;;;;15.13;9.43;;;29.20;64.20;;;;;;1822098;77;21159;-75
2022/03/08 09:26:15;;;;;;;13.58;8.80;;;29.20;63.70;;;;;;1820552;77;21179;-75
2022/03/08 09:28:46;;;;;;;12.33;8.50;;;29.20;63.80;;;;;;1781228;78;21717;-74
2022/03/08 09:31:17;;;;;;;13.70;8.60;;;29.10;64.10;;;;;;1815759;77;21631;-75
2022/03/08 09:33:48;;;;;;;13.30;8.45;;;29.10;64.30;;;;;;1808526;77;21678;-73
2022/03/08 09:36:19;;;;;;;13.18;8.63;;;29.10;64.90;;;;;;1819415;77;21064;-75
2022/03/08 09:38:50;;;;;;;13.98;9.15;;;29.00;64.60;;;;;;1821643;77;21198;-74
2022/03/08 09:41:22;;;;;;;12.95;9.20;;;29.00;65.10;;;;;;1819654;78;21187;-74
2022/03/08 09:43:53;;;;;;;13.35;9.30;;;29.00;65.40;;;;;;1834035;76;21115;-74
2022/03/08 09:46:24;;;;;;;12.85;9.03;;;29.00;65.10;;;;;;1832729;77;21128;-73
2022/03/08 09:48:55;;;;;;;17.37;8.98;;;28.90;66.00;;;;;;1810750;77;21697;-73
2022/03/08 09:51:26;;;;;;;12.43;8.68;;;28.90;65.90;;;;;;1808364;78;21205;-73
2022/03/08 09:53:57;;;;;;;14.20;8.83;;;28.90;65.70;;;;;;1811426;77;21154;-73
2022/03/08 09:56:28;;;;;;;15.03;9.45;;;28.80;65.80;;;;;;1814465;78;21277;-84
2022/03/08 09:58:59;;;;;;;15.80;9.05;;;28.80;65.80;;;;;;1808413;77;21507;-84
2022/03/08 10:01:30;;;;;;;18.95;9.28;;;28.80;66.60;;;;;;1818199;77;21671;-84
2022/03/08 10:04:02;;;;;;;12.00;8.83;;;28.80;66.70;;;;;;1777593;80;21211;-85
2022/03/08 10:06:36;;;;;;;18.32;10.00;;;28.70;66.60;;;;;;1810080;78;21536;-84
2022/03/08 10:09:09;;;;;;;13.85;9.18;;;28.70;66.60;;;;;;1846668;76;21149;-84
2022/03/08 10:11:41;;;;;;;13.22;8.48;;;28.70;66.70;;;;;;1837053;76;21134;-83
2022/03/08 10:14:15;;;;;;;15.05;9.40;;;28.60;66.60;;;;;;1815257;77;21135;-83
2022/03/08 10:16:49;;;;;;;13.45;9.48;;;28.60;66.40;;;;;;1811962;77;21096;-82
2022/03/08 10:19:17;;;;;;;13.40;8.98;;;28.60;66.70;;;;;;1812222;77;21211;-83
2022/03/08 10:21:54;;;;;;;12.30;9.00;;;28.60;66.50;;;;;;1836053;77;21169;-83
2022/03/08 10:24:24;;;;;;;13.15;9.08;;;28.50;66.70;;;;;;1856360;76;21245;-85
2022/03/08 10:26:58;;;;;;;13.62;9.40;;;28.50;66.50;;;;;;1824530;77;21104;-85
2022/03/08 10:29:32;;;;;;;18.10;9.10;;;28.50;66.60;;;;;;1834379;77;21607;-85
2022/03/08 10:32:05;;;;;;;12.98;9.23;;;28.40;66.80;;;;;;1821752;77;21087;-83
2022/03/08 10:34:38;;;;;;;17.42;9.70;;;28.40;66.80;;;;;;1857490;75;21682;-84
2022/03/08 10:37:16;;;;;;;11.75;8.73;;;28.40;66.90;;;;;;1832223;77;21139;-84
2022/03/08 10:39:46;;;;;;;15.68;9.85;;;28.40;67.00;;;;;;1836241;76;21610;-84
2022/03/08 10:42:19;;;;;;;16.17;8.88;;;28.40;67.10;;;;;;1857212;75;21091;-83
2022/03/08 10:44:50;;;;;;;15.53;9.38;;;28.40;67.20;;;;;;1859950;75;21169;-85
2022/03/08 10:47:21;;;;;;;13.72;10.03;;;28.30;67.20;;;;;;1866615;75;21095;-84
2022/03/08 10:49:55;;;;;;;14.65;9.80;;;28.30;67.10;;;;;;1854001;77;21169;-84
2022/03/08 10:52:28;;;;;;;14.05;9.60;;;28.30;67.40;;;;;;1856458;77;21204;-84
2022/03/08 10:55:01;;;;;;;13.83;9.73;;;28.20;67.00;;;;;;1862682;75;21182;-84
2022/03/08 10:57:34;;;;;;;16.23;9.90;;;28.20;67.20;;;;;;1854354;75;21085;-84
2022/03/08 11:00:11;;;;;;;11.97;9.33;;;28.20;67.10;;;;;;1853846;75;21228;-83
2022/03/08 11:02:43;;;;;;;14.43;9.70;;;28.20;66.90;;;;;;1862536;75;21034;-85
2022/03/08 11:05:14;;;;;;;11.38;9.20;;;28.20;67.00;;;;;;1858823;75;21167;-84
2022/03/08 11:07:45;;;;;;;14.75;9.30;;;28.20;67.30;;;;;;1859790;75;21159;-84
2022/03/08 11:10:17;;;;;;;15.90;10.78;;;28.20;67.40;;;;;;1831649;78;21213;-84
2022/03/08 11:12:48;;;;;;;14.65;10.05;;;28.20;67.20;;;;;;1828380;77;21179;-84
2022/03/08 11:15:21;;;;;;;15.38;12.00;;;28.10;67.30;;;;;;1867323;75;21151;-83
2022/03/08 11:17:54;;;;;;;19.80;13.08;;;28.10;67.50;;;;;;1833002;77;21607;-83
2022/03/08 11:20:26;;;;;;;20.85;13.05;;;28.10;67.40;;;;;;1878225;75;21193;-85
2022/03/08 11:22:59;;;;;;;27.35;14.80;;;28.10;67.50;;;;;;1872809;75;21245;-85
2022/03/08 11:25:32;;;;;;;20.02;12.15;;;28.10;67.60;;;;;;1798057;77;22056;-84
2022/03/08 11:28:06;;;;;;;21.25;11.35;;;28.00;67.70;;;;;;1795190;78;21583;-84
2022/03/08 11:30:39;;;;;;;18.25;12.30;;;28.00;67.80;;;;;;1868983;76;21135;-84
2022/03/08 11:33:12;;;;;;;14.33;9.90;;;28.00;67.90;;;;;;1795717;80;21131;-83
2022/03/08 11:35:46;;;;;;;17.40;9.75;;;28.00;68.00;;;;;;1816747;78;21634;-84
2022/03/08 11:38:17;;;;;;;14.98;10.65;;;28.00;68.10;;;;;;1808108;78;21131;-84
2022/03/08 11:40:50;;;;;;;15.95;10.43;;;28.00;68.30;;;;;;1772770;79;21120;-83
2022/03/08 11:43:23;;;;;;;20.68;11.18;;;28.00;68.30;;;;;;1837638;77;21155;-83
2022/03/08 11:45:55;;;;;;;13.90;10.55;;;27.90;68.20;;;;;;1829192;77;21306;-84
2022/03/08 11:48:26;;;;;;;15.15;10.82;;;27.90;68.30;;;;;;1827478;76;21132;-84
2022/03/08 11:50:59;;;;;;;16.80;11.08;;;27.90;68.30;;;;;;1825492;78;21206;-82
2022/03/08 11:53:30;;;;;;;13.78;10.48;;;27.90;68.30;;;;;;1846773;76;21993;-83
2022/03/08 11:56:00;;;;;;;14.70;10.32;;;27.90;68.40;;;;;;1826702;77;21104;-82
2022/03/08 11:58:34;;;;;;;16.25;10.98;;;27.90;68.60;;;;;;1846917;76;21190;-83
2022/03/08 12:01:05;;;;;;;20.95;10.93;;;27.90;68.50;;;;;;1834821;77;21476;-84
2022/03/08 12:03:39;;;;;;;16.15;11.00;;;27.80;68.40;;;;;;1854456;76;21039;-83
2022/03/08 12:06:18;;;;;;;17.98;11.55;;;27.80;68.40;;;;;;1821523;78;21146;-84
2022/03/08 12:08:45;;;;;;;21.40;11.45;;;27.80;68.50;;;;;;1822578;77;21701;-84
2022/03/08 12:11:18;;;;;;;19.32;11.28;;;27.80;68.50;;;;;;1851781;76;21072;-84
2022/03/08 12:13:52;;;;;;;15.03;10.60;;;27.80;68.50;;;;;;1839001;76;21135;-83
2022/03/08 12:16:25;;;;;;;16.15;11.75;;;27.80;68.70;;;;;;1820660;78;21264;-84
2022/03/08 12:18:59;;;;;;;17.45;11.68;;;27.80;68.70;;;;;;1854347;76;21217;-83
2022/03/08 12:21:31;;;;;;;21.37;12.65;;;27.80;68.80;;;;;;1849229;76;21490;-82
2022/03/08 12:24:04;;;;;;;22.22;13.58;;;27.80;68.80;;;;;;1827631;77;21178;-82
2022/03/08 12:26:38;;;;;;;20.37;12.60;;;27.80;68.90;;;;;;1827674;77;21194;-83
2022/03/08 12:29:13;;;;;;;24.37;14.93;;;27.80;69.10;;;;;;1857618;75;21180;-83
2022/03/08 12:31:46;;;;;;;20.68;14.45;;;27.80;69.20;;;;;;1872917;75;21166;-85
2022/03/08 12:34:17;;;;;;;21.23;13.95;;;27.70;69.30;;;;;;1860453;75;21194;-84
2022/03/08 12:36:51;;;;;;;24.02;14.78;;;27.70;69.50;;;;;;1856053;76;21598;-83
2022/03/08 12:39:24;;;;;;;21.85;14.40;;;27.70;69.50;;;;;;1852700;76;21217;-84
2022/03/08 12:41:58;;;;;;;20.32;14.50;;;27.70;69.70;;;;;;1863277;75;21119;-84
2022/03/08 12:44:30;;;;;;;18.42;14.60;;;27.70;69.60;;;;;;1879176;75;21227;-84
2022/03/08 12:47:00;;;;;;;18.85;12.78;;;27.70;69.80;;;;;;1824770;78;21151;-84
2022/03/08 12:49:32;;;;;;;21.15;12.50;;;27.70;69.60;;;;;;1846624;77;21987;-84
2022/03/08 12:52:04;;;;;;;18.35;12.95;;;27.70;69.70;;;;;;1861669;75;21379;-84
2022/03/08 12:54:37;;;;;;;18.15;13.30;;;27.70;69.70;;;;;;1857112;75;21135;-84